sensor_id;sensor_type;location;lat;lon;timestamp;P1;durP1;ratioP1;P2;durP2;ratioP2
21488;SDS011;10906;45.194;5.684;2023-06-14T05:01:16;8.13;;;3.53;;
21488;SDS011;10906;45.194;5.684;2023-06-14T05:04:01;8.77;;;3.65;;
21488;SDS011;10906;45.194;5.684;2023-06-14T05:06:45;8.10;;;3.70;;
21488;SDS011;10906;45.194;5.684;2023-06-14T05:09:31;10.75;;;4.20;;
21488;SDS011;10906;45.194;5.684;2023-06-14T05:12:20;4.68;;;3.58;;
21488;SDS011;10906;45.194;5.684;2023-06-14T05:15:04;6.93;;;4.57;;
21488;SDS011;10906;45.194;5.684;2023-06-14T05:17:49;6.57;;;4.32;;
21488;SDS011;10906;45.194;5.684;2023-06-14T05:20:38;4.97;;;3.90;;
21488;SDS011;10906;45.194;5.684;2023-06-14T05:23:25;10.07;;;4.18;;
21488;SDS011;10906;45.194;5.684;2023-06-14T05:26:13;6.00;;;3.75;;
21488;SDS011;10906;45.194;5.684;2023-06-14T05:28:58;9.43;;;3.85;;
21488;SDS011;10906;45.194;5.684;2023-06-14T05:31:44;10.48;;;4.57;;
21488;SDS011;10906;45.194;5.684;2023-06-14T05:34:32;7.45;;;4.07;;
21488;SDS011;10906;45.194;5.684;2023-06-14T05:37:16;11.52;;;5.45;;
21488;SDS011;10906;45.194;5.684;2023-06-14T05:40:03;5.18;;;4.68;;
21488;SDS011;10906;45.194;5.684;2023-06-14T05:42:51;7.32;;;5.10;;
21488;SDS011;10906;45.194;5.684;2023-06-14T05:45:36;6.22;;;4.88;;
21488;SDS011;10906;45.194;5.684;2023-06-14T05:48:20;10.30;;;5.82;;
21488;SDS011;10906;45.194;5.684;2023-06-14T05:51:05;12.90;;;5.70;;
21488;SDS011;10906;45.194;5.684;2023-06-14T05:53:55;8.35;;;4.90;;
21488;SDS011;10906;45.194;5.684;2023-06-14T05:56:45;5.28;;;4.38;;
21488;SDS011;10906;45.194;5.684;2023-06-14T05:59:33;9.30;;;3.92;;
21488;SDS011;10906;45.194;5.684;2023-06-14T06:02:17;6.97;;;3.95;;
21488;SDS011;10906;45.194;5.684;2023-06-14T06:05:02;15.32;;;5.03;;
21488;SDS011;10906;45.194;5.684;2023-06-14T06:07:47;5.57;;;3.92;;
21488;SDS011;10906;45.194;5.684;2023-06-14T06:10:31;9.75;;;5.03;;
21488;SDS011;10906;45.194;5.684;2023-06-14T06:13:16;12.00;;;5.70;;
21488;SDS011;10906;45.194;5.684;2023-06-14T06:16:01;10.50;;;6.18;;
21488;SDS011;10906;45.194;5.684;2023-06-14T06:18:46;8.15;;;6.35;;
21488;SDS011;10906;45.194;5.684;2023-06-14T06:21:30;15.57;;;7.28;;
21488;SDS011;10906;45.194;5.684;2023-06-14T06:24:15;14.27;;;7.18;;
21488;SDS011;10906;45.194;5.684;2023-06-14T06:27:00;14.55;;;7.03;;
21488;SDS011;10906;45.194;5.684;2023-06-14T06:29:46;10.35;;;6.65;;
21488;SDS011;10906;45.194;5.684;2023-06-14T06:32:32;7.82;;;6.32;;
21488;SDS011;10906;45.194;5.684;2023-06-14T06:35:16;10.48;;;7.00;;
21488;SDS011;10906;45.194;5.684;2023-06-14T06:38:01;14.40;;;7.32;;
21488;SDS011;10906;45.194;5.684;2023-06-14T06:40:45;18.63;;;6.88;;
21488;SDS011;10906;45.194;5.684;2023-06-14T06:43:30;12.75;;;6.85;;
21488;SDS011;10906;45.194;5.684;2023-06-14T06:46:14;11.88;;;7.43;;
21488;SDS011;10906;45.194;5.684;2023-06-14T06:49:08;8.80;;;7.72;;
21488;SDS011;10906;45.194;5.684;2023-06-14T06:52:03;9.15;;;7.28;;
21488;SDS011;10906;45.194;5.684;2023-06-14T06:54:50;10.68;;;7.75;;
21488;SDS011;10906;45.194;5.684;2023-06-14T06:57:38;12.65;;;9.73;;
21488;SDS011;10906;45.194;5.684;2023-06-14T07:00:26;15.43;;;9.32;;
21488;SDS011;10906;45.194;5.684;2023-06-14T07:03:11;15.07;;;11.30;;
21488;SDS011;10906;45.194;5.684;2023-06-14T07:05:56;19.80;;;11.82;;
21488;SDS011;10906;45.194;5.684;2023-06-14T07:08:41;20.65;;;12.68;;
21488;SDS011;10906;45.194;5.684;2023-06-14T07:11:25;21.98;;;13.70;;
21488;SDS011;10906;45.194;5.684;2023-06-14T07:17:17;22.45;;;14.38;;
21488;SDS011;10906;45.194;5.684;2023-06-14T07:20:05;14.95;;;12.05;;
21488;SDS011;10906;45.194;5.684;2023-06-14T07:22:55;16.23;;;13.60;;
21488;SDS011;10906;45.194;5.684;2023-06-14T07:25:39;26.38;;;13.80;;
21488;SDS011;10906;45.194;5.684;2023-06-14T07:28:24;17.90;;;13.73;;
21488;SDS011;10906;45.194;5.684;2023-06-14T07:36:48;18.00;;;12.20;;
21488;SDS011;10906;45.194;5.684;2023-06-14T07:39:36;19.05;;;12.55;;
21488;SDS011;10906;45.194;5.684;2023-06-14T07:42:23;23.55;;;13.70;;
21488;SDS011;10906;45.194;5.684;2023-06-14T07:54:49;16.58;;;14.43;;
21488;SDS011;10906;45.194;5.684;2023-06-14T07:57:34;18.00;;;16.20;;
21488;SDS011;10906;45.194;5.684;2023-06-14T08:00:19;23.02;;;18.60;;
21488;SDS011;10906;45.194;5.684;2023-06-14T08:03:03;18.70;;;16.85;;
21488;SDS011;10906;45.194;5.684;2023-06-14T08:05:48;15.98;;;14.13;;
21488;SDS011;10906;45.194;5.684;2023-06-14T08:08:33;17.60;;;14.60;;
21488;SDS011;10906;45.194;5.684;2023-06-14T08:11:18;16.13;;;14.25;;
21488;SDS011;10906;45.194;5.684;2023-06-14T08:14:02;14.38;;;11.68;;
21488;SDS011;10906;45.194;5.684;2023-06-14T08:16:50;12.13;;;9.40;;
21488;SDS011;10906;45.194;5.684;2023-06-14T08:19:50;12.50;;;9.32;;
21488;SDS011;10906;45.194;5.684;2023-06-14T08:22:35;9.40;;;7.40;;
21488;SDS011;10906;45.194;5.684;2023-06-14T08:25:23;9.02;;;8.05;;
21488;SDS011;10906;45.194;5.684;2023-06-14T08:28:08;5.45;;;4.95;;
21488;SDS011;10906;45.194;5.684;2023-06-14T08:30:53;9.68;;;6.45;;
21488;SDS011;10906;45.194;5.684;2023-06-14T08:33:37;8.60;;;6.30;;
21488;SDS011;10906;45.194;5.684;2023-06-14T08:36:32;11.07;;;8.30;;
21488;SDS011;10906;45.194;5.684;2023-06-14T08:39:17;11.30;;;7.45;;
21488;SDS011;10906;45.194;5.684;2023-06-14T08:42:02;8.38;;;6.60;;
21488;SDS011;10906;45.194;5.684;2023-06-14T08:44:47;5.88;;;5.30;;
21488;SDS011;10906;45.194;5.684;2023-06-14T08:47:35;7.47;;;5.63;;
21488;SDS011;10906;45.194;5.684;2023-06-14T08:54:04;8.02;;;4.75;;
21488;SDS011;10906;45.194;5.684;2023-06-14T08:56:49;5.60;;;4.28;;
21488;SDS011;10906;45.194;5.684;2023-06-14T09:00:03;4.80;;;3.97;;
21488;SDS011;10906;45.194;5.684;2023-06-14T09:03:01;6.68;;;3.42;;
21488;SDS011;10906;45.194;5.684;2023-06-14T09:09:43;2.75;;;2.55;;
21488;SDS011;10906;45.194;5.684;2023-06-14T09:12:27;4.72;;;3.53;;
21488;SDS011;10906;45.194;5.684;2023-06-14T09:15:13;4.18;;;2.88;;
21488;SDS011;10906;45.194;5.684;2023-06-14T09:18:04;6.00;;;2.40;;
21488;SDS011;10906;45.194;5.684;2023-06-14T09:20:51;4.57;;;3.47;;
21488;SDS011;10906;45.194;5.684;2023-06-14T09:27:06;3.75;;;2.83;;
21488;SDS011;10906;45.194;5.684;2023-06-14T09:29:51;8.90;;;2.78;;
21488;SDS011;10906;45.194;5.684;2023-06-14T09:32:36;3.38;;;2.95;;
21488;SDS011;10906;45.194;5.684;2023-06-14T09:38:20;4.78;;;3.00;;
21488;SDS011;10906;45.194;5.684;2023-06-14T09:41:08;3.67;;;2.75;;
21488;SDS011;10906;45.194;5.684;2023-06-14T09:43:52;3.70;;;2.90;;
21488;SDS011;10906;45.194;5.684;2023-06-14T09:46:41;6.88;;;3.20;;
21488;SDS011;10906;45.194;5.684;2023-06-14T09:49:25;5.85;;;3.05;;
21488;SDS011;10906;45.194;5.684;2023-06-14T09:52:10;3.55;;;3.13;;
21488;SDS011;10906;45.194;5.684;2023-06-14T09:54:58;7.07;;;3.10;;
21488;SDS011;10906;45.194;5.684;2023-06-14T09:57:43;3.97;;;3.20;;
21488;SDS011;10906;45.194;5.684;2023-06-14T10:00:31;3.92;;;3.42;;
21488;SDS011;10906;45.194;5.684;2023-06-14T10:03:20;7.15;;;3.30;;
21488;SDS011;10906;45.194;5.684;2023-06-14T10:06:09;6.32;;;2.75;;
21488;SDS011;10906;45.194;5.684;2023-06-14T10:08:54;5.93;;;3.08;;
21488;SDS011;10906;45.194;5.684;2023-06-14T10:11:43;7.82;;;3.65;;
21488;SDS011;10906;45.194;5.684;2023-06-14T10:14:29;5.30;;;3.88;;
21488;SDS011;10906;45.194;5.684;2023-06-14T10:17:37;9.43;;;4.65;;
21488;SDS011;10906;45.194;5.684;2023-06-14T10:20:33;6.38;;;3.55;;
21488;SDS011;10906;45.194;5.684;2023-06-14T10:23:23;5.22;;;3.67;;
21488;SDS011;10906;45.194;5.684;2023-06-14T10:26:08;6.47;;;3.28;;
21488;SDS011;10906;45.194;5.684;2023-06-14T10:28:59;9.75;;;3.67;;
21488;SDS011;10906;45.194;5.684;2023-06-14T10:31:49;4.20;;;3.17;;
21488;SDS011;10906;45.194;5.684;2023-06-14T10:34:45;8.32;;;3.75;;
21488;SDS011;10906;45.194;5.684;2023-06-14T10:37:30;3.85;;;3.08;;
21488;SDS011;10906;45.194;5.684;2023-06-14T10:40:29;3.25;;;2.95;;
21488;SDS011;10906;45.194;5.684;2023-06-14T10:43:23;10.38;;;3.40;;
21488;SDS011;10906;45.194;5.684;2023-06-14T10:46:18;7.20;;;3.50;;
21488;SDS011;10906;45.194;5.684;2023-06-14T10:49:10;6.20;;;3.53;;
21488;SDS011;10906;45.194;5.684;2023-06-14T10:51:57;4.55;;;3.47;;
21488;SDS011;10906;45.194;5.684;2023-06-14T10:57:51;4.78;;;3.53;;
21488;SDS011;10906;45.194;5.684;2023-06-14T11:00:54;5.07;;;3.40;;
21488;SDS011;10906;45.194;5.684;2023-06-14T11:03:51;8.32;;;3.72;;
21488;SDS011;10906;45.194;5.684;2023-06-14T11:07:26;6.55;;;3.90;;
21488;SDS011;10906;45.194;5.684;2023-06-14T11:13:21;5.97;;;3.60;;
21488;SDS011;10906;45.194;5.684;2023-06-14T11:16:20;8.60;;;3.58;;
21488;SDS011;10906;45.194;5.684;2023-06-14T11:19:09;4.15;;;3.67;;
21488;SDS011;10906;45.194;5.684;2023-06-14T11:21:54;4.22;;;3.83;;
21488;SDS011;10906;45.194;5.684;2023-06-14T11:24:39;8.90;;;4.03;;
21488;SDS011;10906;45.194;5.684;2023-06-14T11:27:23;5.10;;;4.07;;
21488;SDS011;10906;45.194;5.684;2023-06-14T11:30:12;6.85;;;3.90;;
21488;SDS011;10906;45.194;5.684;2023-06-14T11:32:57;5.93;;;3.95;;
21488;SDS011;10906;45.194;5.684;2023-06-14T11:35:45;5.25;;;3.55;;
21488;SDS011;10906;45.194;5.684;2023-06-14T11:38:39;5.45;;;4.10;;
21488;SDS011;10906;45.194;5.684;2023-06-14T11:41:24;4.72;;;3.72;;
21488;SDS011;10906;45.194;5.684;2023-06-14T11:44:09;4.47;;;3.53;;
21488;SDS011;10906;45.194;5.684;2023-06-14T11:46:54;8.93;;;3.83;;
21488;SDS011;10906;45.194;5.684;2023-06-14T11:49:40;5.20;;;3.97;;
21488;SDS011;10906;45.194;5.684;2023-06-14T11:52:24;7.63;;;4.07;;
21488;SDS011;10906;45.194;5.684;2023-06-14T11:55:09;7.93;;;4.35;;
21488;SDS011;10906;45.194;5.684;2023-06-14T11:57:54;7.57;;;4.32;;
21488;SDS011;10906;45.194;5.684;2023-06-14T12:00:41;6.75;;;3.80;;
21488;SDS011;10906;45.194;5.684;2023-06-14T12:03:26;4.68;;;4.18;;
21488;SDS011;10906;45.194;5.684;2023-06-14T12:06:13;4.97;;;4.28;;
21488;SDS011;10906;45.194;5.684;2023-06-14T12:08:58;7.47;;;4.00;;
21488;SDS011;10906;45.194;5.684;2023-06-14T12:11:46;7.15;;;4.35;;
21488;SDS011;10906;45.194;5.684;2023-06-14T12:14:30;6.05;;;3.75;;
21488;SDS011;10906;45.194;5.684;2023-06-14T12:17:16;4.85;;;3.83;;
21488;SDS011;10906;45.194;5.684;2023-06-14T12:20:05;5.60;;;4.13;;
21488;SDS011;10906;45.194;5.684;2023-06-14T12:22:55;4.90;;;4.23;;
21488;SDS011;10906;45.194;5.684;2023-06-14T12:25:40;5.32;;;3.67;;
21488;SDS011;10906;45.194;5.684;2023-06-14T12:28:35;8.18;;;4.03;;
21488;SDS011;10906;45.194;5.684;2023-06-14T12:31:19;4.03;;;3.63;;
21488;SDS011;10906;45.194;5.684;2023-06-14T12:34:04;5.55;;;4.43;;
21488;SDS011;10906;45.194;5.684;2023-06-14T12:36:52;7.50;;;4.28;;
21488;SDS011;10906;45.194;5.684;2023-06-14T12:39:37;7.35;;;4.25;;
21488;SDS011;10906;45.194;5.684;2023-06-14T12:42:23;5.13;;;4.03;;
21488;SDS011;10906;45.194;5.684;2023-06-14T12:45:08;4.82;;;3.40;;
21488;SDS011;10906;45.194;5.684;2023-06-14T12:47:53;5.25;;;3.85;;
21488;SDS011;10906;45.194;5.684;2023-06-14T12:50:37;7.18;;;4.15;;
21488;SDS011;10906;45.194;5.684;2023-06-14T12:53:22;6.28;;;4.30;;
21488;SDS011;10906;45.194;5.684;2023-06-14T12:56:07;4.78;;;3.78;;
21488;SDS011;10906;45.194;5.684;2023-06-14T12:58:51;5.28;;;3.78;;
21488;SDS011;10906;45.194;5.684;2023-06-14T13:01:37;5.13;;;4.13;;
21488;SDS011;10906;45.194;5.684;2023-06-14T13:04:24;5.65;;;4.38;;
21488;SDS011;10906;45.194;5.684;2023-06-14T13:07:11;8.43;;;4.70;;
21488;SDS011;10906;45.194;5.684;2023-06-14T13:09:56;5.78;;;4.40;;
21488;SDS011;10906;45.194;5.684;2023-06-14T13:12:40;7.47;;;4.20;;
21488;SDS011;10906;45.194;5.684;2023-06-14T13:15:25;5.85;;;4.35;;
21488;SDS011;10906;45.194;5.684;2023-06-14T13:18:10;6.65;;;4.20;;
21488;SDS011;10906;45.194;5.684;2023-06-14T13:20:56;7.72;;;4.20;;
21488;SDS011;10906;45.194;5.684;2023-06-14T13:23:41;8.75;;;4.50;;
21488;SDS011;10906;45.194;5.684;2023-06-14T13:26:26;7.53;;;4.25;;
21488;SDS011;10906;45.194;5.684;2023-06-14T13:29:10;5.00;;;3.95;;
21488;SDS011;10906;45.194;5.684;2023-06-14T13:31:57;5.32;;;3.85;;
21488;SDS011;10906;45.194;5.684;2023-06-14T13:34:43;5.07;;;4.18;;
21488;SDS011;10906;45.194;5.684;2023-06-14T13:37:28;4.80;;;3.88;;
21488;SDS011;10906;45.194;5.684;2023-06-14T13:40:12;5.18;;;4.13;;
21488;SDS011;10906;45.194;5.684;2023-06-14T13:42:57;5.55;;;4.38;;
21488;SDS011;10906;45.194;5.684;2023-06-14T13:45:42;4.60;;;4.15;;
21488;SDS011;10906;45.194;5.684;2023-06-14T13:48:26;7.55;;;4.32;;
21488;SDS011;10906;45.194;5.684;2023-06-14T13:51:11;6.03;;;4.35;;
21488;SDS011;10906;45.194;5.684;2023-06-14T13:53:55;9.32;;;4.93;;
21488;SDS011;10906;45.194;5.684;2023-06-14T13:56:40;8.38;;;5.00;;
21488;SDS011;10906;45.194;5.684;2023-06-14T13:59:25;6.45;;;5.15;;
21488;SDS011;10906;45.194;5.684;2023-06-14T14:02:24;8.18;;;4.78;;
21488;SDS011;10906;45.194;5.684;2023-06-14T14:05:12;4.93;;;4.53;;
21488;SDS011;10906;45.194;5.684;2023-06-14T14:07:57;6.82;;;4.90;;
21488;SDS011;10906;45.194;5.684;2023-06-14T14:10:42;6.75;;;4.60;;
21488;SDS011;10906;45.194;5.684;2023-06-14T14:13:28;7.70;;;4.93;;
21488;SDS011;10906;45.194;5.684;2023-06-14T14:16:22;6.22;;;4.57;;
21488;SDS011;10906;45.194;5.684;2023-06-14T14:19:15;6.95;;;4.85;;
21488;SDS011;10906;45.194;5.684;2023-06-14T14:22:02;9.02;;;5.07;;
21488;SDS011;10906;45.194;5.684;2023-06-14T14:24:53;6.95;;;5.13;;
21488;SDS011;10906;45.194;5.684;2023-06-14T14:27:40;6.35;;;4.90;;
21488;SDS011;10906;45.194;5.684;2023-06-14T14:30:25;5.53;;;4.57;;
21488;SDS011;10906;45.194;5.684;2023-06-14T14:33:25;5.63;;;4.63;;
21488;SDS011;10906;45.194;5.684;2023-06-14T14:36:09;7.40;;;4.78;;
21488;SDS011;10906;45.194;5.684;2023-06-14T14:38:54;5.25;;;4.68;;
21488;SDS011;10906;45.194;5.684;2023-06-14T14:41:39;6.38;;;5.20;;
21488;SDS011;10906;45.194;5.684;2023-06-14T14:44:24;8.95;;;4.90;;
21488;SDS011;10906;45.194;5.684;2023-06-14T14:47:08;7.00;;;4.07;;
21488;SDS011;10906;45.194;5.684;2023-06-14T14:49:53;5.30;;;4.72;;
21488;SDS011;10906;45.194;5.684;2023-06-14T14:52:37;5.43;;;4.55;;
21488;SDS011;10906;45.194;5.684;2023-06-14T14:55:22;5.75;;;4.90;;
21488;SDS011;10906;45.194;5.684;2023-06-14T14:58:07;5.97;;;4.78;;
21488;SDS011;10906;45.194;5.684;2023-06-14T15:00:52;8.80;;;4.63;;
21488;SDS011;10906;45.194;5.684;2023-06-14T15:03:36;6.50;;;4.60;;
21488;SDS011;10906;45.194;5.684;2023-06-14T15:06:21;12.20;;;4.93;;
21488;SDS011;10906;45.194;5.684;2023-06-14T15:09:06;4.93;;;4.47;;
21488;SDS011;10906;45.194;5.684;2023-06-14T15:11:50;7.63;;;4.70;;
21488;SDS011;10906;45.194;5.684;2023-06-14T15:14:35;8.60;;;4.80;;
21488;SDS011;10906;45.194;5.684;2023-06-14T15:17:20;8.70;;;5.22;;
21488;SDS011;10906;45.194;5.684;2023-06-14T15:20:05;8.68;;;4.82;;
21488;SDS011;10906;45.194;5.684;2023-06-14T15:22:50;11.85;;;5.07;;
21488;SDS011;10906;45.194;5.684;2023-06-14T15:25:37;7.78;;;4.40;;
21488;SDS011;10906;45.194;5.684;2023-06-14T15:28:21;7.10;;;4.30;;
21488;SDS011;10906;45.194;5.684;2023-06-14T15:31:08;4.80;;;4.40;;
21488;SDS011;10906;45.194;5.684;2023-06-14T15:33:52;6.68;;;4.95;;
21488;SDS011;10906;45.194;5.684;2023-06-14T15:36:37;7.90;;;4.53;;
21488;SDS011;10906;45.194;5.684;2023-06-14T15:39:24;5.60;;;4.60;;
21488;SDS011;10906;45.194;5.684;2023-06-14T15:42:10;10.25;;;4.47;;
21488;SDS011;10906;45.194;5.684;2023-06-14T15:45:02;5.60;;;4.97;;
21488;SDS011;10906;45.194;5.684;2023-06-14T15:47:47;6.28;;;4.88;;
21488;SDS011;10906;45.194;5.684;2023-06-14T15:50:34;6.07;;;4.53;;
21488;SDS011;10906;45.194;5.684;2023-06-14T15:53:20;7.72;;;4.82;;
21488;SDS011;10906;45.194;5.684;2023-06-14T15:56:05;5.32;;;4.40;;
21488;SDS011;10906;45.194;5.684;2023-06-14T15:58:50;6.80;;;4.15;;
21488;SDS011;10906;45.194;5.684;2023-06-14T16:01:34;6.47;;;4.75;;
21488;SDS011;10906;45.194;5.684;2023-06-14T16:04:20;8.38;;;4.60;;
21488;SDS011;10906;45.194;5.684;2023-06-14T16:07:04;10.15;;;5.40;;
21488;SDS011;10906;45.194;5.684;2023-06-14T16:09:49;7.25;;;4.85;;
21488;SDS011;10906;45.194;5.684;2023-06-14T16:12:33;9.48;;;5.10;;
21488;SDS011;10906;45.194;5.684;2023-06-14T16:15:18;6.85;;;4.63;;
21488;SDS011;10906;45.194;5.684;2023-06-14T16:18:03;6.32;;;4.35;;
21488;SDS011;10906;45.194;5.684;2023-06-14T16:20:47;4.95;;;4.53;;
21488;SDS011;10906;45.194;5.684;2023-06-14T16:23:32;7.65;;;5.20;;
21488;SDS011;10906;45.194;5.684;2023-06-14T16:26:16;6.93;;;5.18;;
21488;SDS011;10906;45.194;5.684;2023-06-14T16:29:01;6.72;;;5.00;;
21488;SDS011;10906;45.194;5.684;2023-06-14T16:31:45;9.40;;;5.05;;
21488;SDS011;10906;45.194;5.684;2023-06-14T16:34:32;6.05;;;4.90;;
21488;SDS011;10906;45.194;5.684;2023-06-14T16:37:18;8.23;;;4.80;;
21488;SDS011;10906;45.194;5.684;2023-06-14T16:40:04;5.82;;;4.68;;
21488;SDS011;10906;45.194;5.684;2023-06-14T16:42:50;5.85;;;4.88;;
21488;SDS011;10906;45.194;5.684;2023-06-14T16:45:35;7.70;;;4.85;;
21488;SDS011;10906;45.194;5.684;2023-06-14T16:48:20;7.80;;;4.55;;
21488;SDS011;10906;45.194;5.684;2023-06-14T16:51:05;6.07;;;4.63;;
21488;SDS011;10906;45.194;5.684;2023-06-14T16:53:53;7.30;;;5.32;;
21488;SDS011;10906;45.194;5.684;2023-06-14T16:56:38;7.97;;;4.85;;
21488;SDS011;10906;45.194;5.684;2023-06-14T16:59:26;7.25;;;4.88;;
21488;SDS011;10906;45.194;5.684;2023-06-14T17:02:13;8.00;;;4.40;;
21488;SDS011;10906;45.194;5.684;2023-06-14T17:04:59;12.05;;;4.28;;
21488;SDS011;10906;45.194;5.684;2023-06-14T17:07:44;7.38;;;4.57;;
21488;SDS011;10906;45.194;5.684;2023-06-14T17:10:29;9.23;;;4.72;;
21488;SDS011;10906;45.194;5.684;2023-06-14T17:13:14;4.97;;;4.25;;
21488;SDS011;10906;45.194;5.684;2023-06-14T17:16:03;5.05;;;4.35;;
21488;SDS011;10906;45.194;5.684;2023-06-14T17:19:00;8.75;;;4.20;;
21488;SDS011;10906;45.194;5.684;2023-06-14T17:21:48;7.05;;;4.55;;
21488;SDS011;10906;45.194;5.684;2023-06-14T17:24:35;5.95;;;4.13;;
21488;SDS011;10906;45.194;5.684;2023-06-14T17:27:20;10.57;;;4.55;;
21488;SDS011;10906;45.194;5.684;2023-06-14T17:32:40;5.60;;;3.67;;
21488;SDS011;10906;45.194;5.684;2023-06-14T17:35:25;7.00;;;4.13;;
21488;SDS011;10906;45.194;5.684;2023-06-14T17:38:10;9.05;;;3.80;;
21488;SDS011;10906;45.194;5.684;2023-06-14T17:40:55;6.32;;;4.30;;
21488;SDS011;10906;45.194;5.684;2023-06-14T17:43:42;4.60;;;3.72;;
21488;SDS011;10906;45.194;5.684;2023-06-14T17:46:27;4.90;;;3.58;;
21488;SDS011;10906;45.194;5.684;2023-06-14T17:49:14;5.53;;;3.50;;
21488;SDS011;10906;45.194;5.684;2023-06-14T17:52:07;5.47;;;3.90;;
21488;SDS011;10906;45.194;5.684;2023-06-14T17:54:52;10.90;;;4.30;;
21488;SDS011;10906;45.194;5.684;2023-06-14T17:57:36;5.88;;;3.78;;
21488;SDS011;10906;45.194;5.684;2023-06-14T18:00:21;6.80;;;4.20;;
21488;SDS011;10906;45.194;5.684;2023-06-14T18:03:06;5.07;;;3.72;;
21488;SDS011;10906;45.194;5.684;2023-06-14T18:05:51;6.57;;;4.43;;
21488;SDS011;10906;45.194;5.684;2023-06-14T18:08:35;4.35;;;3.83;;
21488;SDS011;10906;45.194;5.684;2023-06-14T18:11:20;4.53;;;3.50;;
21488;SDS011;10906;45.194;5.684;2023-06-14T18:14:05;8.57;;;4.40;;
21488;SDS011;10906;45.194;5.684;2023-06-14T18:16:53;4.60;;;3.83;;
21488;SDS011;10906;45.194;5.684;2023-06-14T18:19:38;5.72;;;4.20;;
21488;SDS011;10906;45.194;5.684;2023-06-14T18:22:23;7.88;;;3.95;;
21488;SDS011;10906;45.194;5.684;2023-06-14T18:25:23;5.05;;;3.65;;
21488;SDS011;10906;45.194;5.684;2023-06-14T18:28:08;5.55;;;3.35;;
21488;SDS011;10906;45.194;5.684;2023-06-14T18:30:52;5.18;;;3.67;;
21488;SDS011;10906;45.194;5.684;2023-06-14T18:33:37;5.40;;;3.53;;
21488;SDS011;10906;45.194;5.684;2023-06-14T18:36:21;5.85;;;3.50;;
21488;SDS011;10906;45.194;5.684;2023-06-14T18:39:05;5.85;;;3.72;;
21488;SDS011;10906;45.194;5.684;2023-06-14T18:41:50;7.65;;;4.22;;
21488;SDS011;10906;45.194;5.684;2023-06-14T18:44:34;6.13;;;4.00;;
21488;SDS011;10906;45.194;5.684;2023-06-14T18:47:18;5.60;;;3.67;;
21488;SDS011;10906;45.194;5.684;2023-06-14T18:50:03;8.38;;;4.05;;
21488;SDS011;10906;45.194;5.684;2023-06-14T18:52:49;7.47;;;4.05;;
21488;SDS011;10906;45.194;5.684;2023-06-14T18:55:33;8.07;;;3.78;;
21488;SDS011;10906;45.194;5.684;2023-06-14T18:58:18;4.32;;;3.90;;
21488;SDS011;10906;45.194;5.684;2023-06-14T19:01:03;8.85;;;4.20;;
21488;SDS011;10906;45.194;5.684;2023-06-14T19:03:47;7.68;;;3.90;;
21488;SDS011;10906;45.194;5.684;2023-06-14T19:06:32;6.45;;;4.13;;
21488;SDS011;10906;45.194;5.684;2023-06-14T19:09:16;5.82;;;4.32;;
21488;SDS011;10906;45.194;5.684;2023-06-14T19:12:04;9.38;;;3.72;;
21488;SDS011;10906;45.194;5.684;2023-06-14T19:14:49;5.13;;;3.90;;
21488;SDS011;10906;45.194;5.684;2023-06-14T19:17:33;5.32;;;3.67;;
21488;SDS011;10906;45.194;5.684;2023-06-14T19:20:18;8.73;;;4.32;;
21488;SDS011;10906;45.194;5.684;2023-06-14T19:23:02;6.43;;;3.60;;
21488;SDS011;10906;45.194;5.684;2023-06-14T19:25:48;5.65;;;4.03;;
21488;SDS011;10906;45.194;5.684;2023-06-14T19:28:35;4.78;;;3.63;;
21488;SDS011;10906;45.194;5.684;2023-06-14T19:31:19;9.00;;;4.35;;
21488;SDS011;10906;45.194;5.684;2023-06-14T19:34:04;6.40;;;4.07;;
21488;SDS011;10906;45.194;5.684;2023-06-14T19:36:48;5.07;;;4.22;;
21488;SDS011;10906;45.194;5.684;2023-06-14T19:39:32;4.85;;;3.90;;
21488;SDS011;10906;45.194;5.684;2023-06-14T19:42:17;4.00;;;3.53;;
21488;SDS011;10906;45.194;5.684;2023-06-14T19:45:02;5.63;;;4.68;;
21488;SDS011;10906;45.194;5.684;2023-06-14T19:47:47;5.88;;;3.92;;
21488;SDS011;10906;45.194;5.684;2023-06-14T19:50:32;4.97;;;3.83;;
21488;SDS011;10906;45.194;5.684;2023-06-14T19:53:16;4.93;;;4.00;;
21488;SDS011;10906;45.194;5.684;2023-06-14T19:56:01;6.32;;;4.13;;
21488;SDS011;10906;45.194;5.684;2023-06-14T19:58:46;5.63;;;4.00;;
21488;SDS011;10906;45.194;5.684;2023-06-14T20:01:31;5.65;;;3.67;;
21488;SDS011;10906;45.194;5.684;2023-06-14T20:04:16;8.00;;;4.22;;
21488;SDS011;10906;45.194;5.684;2023-06-14T20:07:01;5.88;;;4.55;;
21488;SDS011;10906;45.194;5.684;2023-06-14T20:09:49;6.10;;;4.00;;
21488;SDS011;10906;45.194;5.684;2023-06-14T20:12:34;5.95;;;3.45;;
21488;SDS011;10906;45.194;5.684;2023-06-14T20:15:18;5.93;;;4.47;;
21488;SDS011;10906;45.194;5.684;2023-06-14T20:18:03;5.60;;;3.60;;
21488;SDS011;10906;45.194;5.684;2023-06-14T20:20:48;8.40;;;4.45;;
21488;SDS011;10906;45.194;5.684;2023-06-14T20:23:35;9.50;;;3.92;;
21488;SDS011;10906;45.194;5.684;2023-06-14T20:26:21;5.03;;;3.75;;
21488;SDS011;10906;45.194;5.684;2023-06-14T20:29:05;5.32;;;3.35;;
21488;SDS011;10906;45.194;5.684;2023-06-14T20:31:50;9.27;;;4.40;;
21488;SDS011;10906;45.194;5.684;2023-06-14T20:34:35;7.03;;;4.10;;
21488;SDS011;10906;45.194;5.684;2023-06-14T20:37:20;8.00;;;4.22;;
21488;SDS011;10906;45.194;5.684;2023-06-14T20:40:05;10.30;;;4.28;;
21488;SDS011;10906;45.194;5.684;2023-06-14T20:42:52;8.95;;;4.82;;
21488;SDS011;10906;45.194;5.684;2023-06-14T20:45:41;6.57;;;4.32;;
21488;SDS011;10906;45.194;5.684;2023-06-14T20:48:25;3.90;;;3.50;;
21488;SDS011;10906;45.194;5.684;2023-06-14T20:51:11;6.97;;;4.20;;
21488;SDS011;10906;45.194;5.684;2023-06-14T20:53:56;7.25;;;4.18;;
21488;SDS011;10906;45.194;5.684;2023-06-14T20:56:41;6.25;;;3.67;;
21488;SDS011;10906;45.194;5.684;2023-06-14T20:59:26;10.90;;;4.60;;
21488;SDS011;10906;45.194;5.684;2023-06-14T21:02:10;7.03;;;4.13;;
21488;SDS011;10906;45.194;5.684;2023-06-14T21:04:59;10.02;;;4.15;;
21488;SDS011;10906;45.194;5.684;2023-06-14T21:07:44;10.27;;;4.00;;
21488;SDS011;10906;45.194;5.684;2023-06-14T21:10:28;6.15;;;4.10;;
21488;SDS011;10906;45.194;5.684;2023-06-14T21:13:14;7.07;;;3.92;;
21488;SDS011;10906;45.194;5.684;2023-06-14T21:15:58;8.85;;;4.53;;
21488;SDS011;10906;45.194;5.684;2023-06-14T21:18:43;8.45;;;3.65;;
21488;SDS011;10906;45.194;5.684;2023-06-14T21:21:27;8.88;;;4.65;;
21488;SDS011;10906;45.194;5.684;2023-06-14T21:24:11;11.15;;;4.28;;
21488;SDS011;10906;45.194;5.684;2023-06-14T21:26:56;7.47;;;4.25;;
21488;SDS011;10906;45.194;5.684;2023-06-14T21:29:41;6.82;;;3.83;;
21488;SDS011;10906;45.194;5.684;2023-06-14T21:32:26;10.07;;;4.28;;
21488;SDS011;10906;45.194;5.684;2023-06-14T21:35:11;8.77;;;3.90;;
21488;SDS011;10906;45.194;5.684;2023-06-14T21:37:55;9.43;;;4.38;;
21488;SDS011;10906;45.194;5.684;2023-06-14T21:40:40;10.23;;;4.38;;
21488;SDS011;10906;45.194;5.684;2023-06-14T21:43:28;6.43;;;4.00;;
21488;SDS011;10906;45.194;5.684;2023-06-14T21:46:13;6.13;;;3.65;;
21488;SDS011;10906;45.194;5.684;2023-06-14T21:48:58;7.18;;;4.28;;
21488;SDS011;10906;45.194;5.684;2023-06-14T21:51:42;6.63;;;3.63;;
21488;SDS011;10906;45.194;5.684;2023-06-14T21:54:28;6.65;;;3.90;;
21488;SDS011;10906;45.194;5.684;2023-06-14T21:57:12;10.95;;;3.88;;
21488;SDS011;10906;45.194;5.684;2023-06-14T21:59:56;13.68;;;3.90;;
